Time;durP1;ratioP1;P1;durP2;ratioP2;P2;SDS_P1;SDS_P2;PMS_P1;PMS_P2;Temp;Humidity;BMP_temperature;BMP_pressure;BME280_temperature;BME280_humidity;BME280_pressure;Samples;Min_cycle;Max_cycle;Signal;HPM_P1;HPM_P2
2023/12/11 00:00:43;;;;;;;8.57;1.40;;;13.20;99.90;;;;;;5009185;28;20502;-22
2023/12/11 00:03:09;;;;;;;12.18;1.73;;;13.20;99.90;;;;;;4986429;28;20573;-23
2023/12/11 00:05:38;;;;;;;10.20;1.52;;;13.20;99.90;;;;;;5017658;28;20013;-22
2023/12/11 00:08:05;;;;;;;8.57;1.90;;;13.20;99.90;;;;;;4998741;28;20221;-19
2023/12/11 00:10:31;;;;;;;11.40;2.28;;;13.20;99.90;;;;;;5018055;28;20037;-20
2023/12/11 00:12:57;;;;;;;11.38;2.45;;;13.10;99.90;;;;;;5009132;28;20257;-20
2023/12/11 00:15:22;;;;;;;11.43;1.77;;;13.10;99.90;;;;;;5028538;28;20403;-20
2023/12/11 00:17:49;;;;;;;8.68;1.58;;;13.20;99.90;;;;;;4994415;28;20407;-20
2023/12/11 00:20:14;;;;;;;6.63;1.60;;;13.20;99.90;;;;;;4998300;28;22070;-19
2023/12/11 00:22:40;;;;;;;10.63;2.17;;;13.20;99.90;;;;;;5017950;28;20028;-20
2023/12/11 00:25:07;;;;;;;11.23;2.45;;;13.10;99.90;;;;;;5015571;28;20332;-19
2023/12/11 00:27:33;;;;;;;7.25;1.85;;;13.20;99.90;;;;;;5012120;28;20506;-20
2023/12/11 00:29:59;;;;;;;8.82;1.52;;;13.10;99.90;;;;;;4987725;28;20128;-19
2023/12/11 00:32:25;;;;;;;7.80;1.40;;;13.10;99.90;;;;;;4994916;28;20417;-20
2023/12/11 00:34:51;;;;;;;6.68;1.23;;;13.10;99.90;;;;;;5016741;28;20282;-21
2023/12/11 00:37:17;;;;;;;5.75;1.70;;;13.10;99.90;;;;;;5008643;28;20033;-20
2023/12/11 00:39:43;;;;;;;8.00;1.40;;;13.10;99.90;;;;;;5018077;28;20041;-21
2023/12/11 00:42:09;;;;;;;10.80;1.80;;;13.10;99.90;;;;;;5025785;28;20433;-20
2023/12/11 00:44:37;;;;;;;10.48;1.60;;;13.10;99.90;;;;;;4993234;28;20416;-20
2023/12/11 00:47:04;;;;;;;8.40;1.38;;;13.10;99.90;;;;;;5015037;28;20724;-20
2023/12/11 00:49:31;;;;;;;11.73;1.80;;;13.10;99.90;;;;;;5005800;28;20035;-20
2023/12/11 00:51:57;;;;;;;9.13;1.63;;;13.00;99.90;;;;;;4986890;28;20504;-20
2023/12/11 00:54:23;;;;;;;8.20;1.40;;;13.00;99.90;;;;;;5017747;28;20140;-20
2023/12/11 00:56:49;;;;;;;8.13;1.30;;;13.00;99.90;;;;;;5022613;28;20483;-21
2023/12/11 00:59:15;;;;;;;10.50;1.43;;;13.00;99.90;;;;;;5010621;28;20783;-20
2023/12/11 01:01:41;;;;;;;8.48;1.80;;;13.00;99.90;;;;;;4999957;28;20483;-21
2023/12/11 01:04:08;;;;;;;8.32;1.70;;;13.00;99.90;;;;;;5008869;28;20021;-19
2023/12/11 01:06:33;;;;;;;9.68;1.48;;;13.00;99.90;;;;;;5020619;28;20033;-19
2023/12/11 01:08:59;;;;;;;8.10;1.57;;;13.00;99.90;;;;;;5016086;28;20227;-20
2023/12/11 01:11:25;;;;;;;6.00;1.70;;;13.00;99.90;;;;;;5021888;28;20394;-20
2023/12/11 01:13:51;;;;;;;9.63;1.60;;;13.00;99.90;;;;;;5014580;28;20070;-21
2023/12/11 01:16:17;;;;;;;8.93;1.90;;;13.00;99.90;;;;;;4998613;28;20420;-20
2023/12/11 01:18:43;;;;;;;10.07;1.85;;;13.00;99.90;;;;;;5015965;28;20040;-21
2023/12/11 01:21:09;;;;;;;9.40;1.70;;;13.00;99.90;;;;;;5011066;28;20104;-20
2023/12/11 01:23:35;;;;;;;8.55;1.70;;;13.00;99.90;;;;;;5011654;28;20072;-20
2023/12/11 01:26:01;;;;;;;8.73;1.80;;;13.00;99.90;;;;;;5018938;28;20048;-20
2023/12/11 01:28:27;;;;;;;9.65;1.75;;;12.90;99.90;;;;;;5029070;28;20085;-20
2023/12/11 01:30:53;;;;;;;7.07;1.30;;;13.00;99.90;;;;;;5013153;28;20017;-21
2023/12/11 01:33:19;;;;;;;8.50;1.55;;;12.90;99.90;;;;;;5032352;28;20033;-20
2023/12/11 01:35:45;;;;;;;9.10;1.52;;;12.90;99.90;;;;;;5006431;28;20048;-21
2023/12/11 01:38:11;;;;;;;6.17;1.53;;;12.90;99.90;;;;;;5000854;28;20273;-20
2023/12/11 01:40:36;;;;;;;14.05;2.15;;;12.90;99.90;;;;;;5027720;28;20029;-21
2023/12/11 01:43:17;;;;;;;7.18;1.40;;;12.90;99.90;;;;;;5021383;28;20074;-20
2023/12/11 01:45:42;;;;;;;10.02;1.60;;;12.90;99.90;;;;;;4988024;28;20541;-21
2023/12/11 01:48:10;;;;;;;10.07;1.73;;;12.90;99.90;;;;;;5003804;28;20029;-20
2023/12/11 01:50:38;;;;;;;12.82;1.50;;;12.90;99.90;;;;;;5000329;28;20029;-21
2023/12/11 01:53:05;;;;;;;10.35;1.52;;;12.80;99.90;;;;;;4991179;28;20507;-20
2023/12/11 01:55:33;;;;;;;7.43;1.67;;;12.80;99.90;;;;;;5000714;28;20064;-20
2023/12/11 01:58:01;;;;;;;9.57;1.73;;;12.80;99.90;;;;;;5019022;28;20060;-20
2023/12/11 02:00:27;;;;;;;7.57;1.38;;;12.80;99.90;;;;;;5032553;28;20079;-20
2023/12/11 02:02:53;;;;;;;5.72;1.40;;;12.80;99.90;;;;;;5009393;28;20037;-21
2023/12/11 02:05:19;;;;;;;10.23;1.77;;;12.80;99.90;;;;;;5018949;28;20034;-20
2023/12/11 02:07:45;;;;;;;10.30;1.80;;;12.80;99.90;;;;;;5006353;28;20024;-20
2023/12/11 02:10:11;;;;;;;7.80;1.40;;;12.70;99.90;;;;;;5007103;28;20277;-20
2023/12/11 02:12:39;;;;;;;9.38;1.83;;;12.70;99.90;;;;;;5008557;28;20025;-21
2023/12/11 02:15:05;;;;;;;11.95;2.05;;;12.70;99.90;;;;;;5010088;28;20102;-20
2023/12/11 02:17:31;;;;;;;10.73;1.50;;;12.70;99.90;;;;;;4993685;28;20382;-20
2023/12/11 02:19:57;;;;;;;7.33;1.33;;;12.70;99.90;;;;;;5025523;28;20029;-18
2023/12/11 02:22:24;;;;;;;10.07;1.30;;;12.70;99.90;;;;;;5008994;28;20104;-17
2023/12/11 02:24:58;;;;;;;9.43;1.63;;;12.60;99.90;;;;;;4987742;28;20474;-19
2023/12/11 02:27:25;;;;;;;8.67;1.73;;;12.60;99.90;;;;;;4998033;28;20065;-17
2023/12/11 02:29:53;;;;;;;7.70;1.38;;;12.60;99.90;;;;;;5004138;28;20136;-17
2023/12/11 02:32:19;;;;;;;6.28;1.40;;;12.50;99.90;;;;;;5016645;28;20446;-17
2023/12/11 02:34:47;;;;;;;5.72;1.13;;;12.50;99.90;;;;;;4996083;28;20058;-18
2023/12/11 02:37:14;;;;;;;8.23;1.60;;;12.40;99.90;;;;;;5018687;28;20032;-17
2023/12/11 02:39:40;;;;;;;6.20;1.70;;;12.40;99.90;;;;;;4962758;28;20037;-18
2023/12/11 02:42:06;;;;;;;12.23;1.85;;;12.40;99.90;;;;;;5023581;28;20448;-16
2023/12/11 02:44:32;;;;;;;12.70;1.70;;;12.30;99.90;;;;;;5017072;28;20036;-17
2023/12/11 02:46:57;;;;;;;7.60;1.75;;;12.30;99.90;;;;;;5010532;28;20683;-16
2023/12/11 02:49:23;;;;;;;6.60;1.83;;;12.30;99.90;;;;;;4979873;28;20025;-16
2023/12/11 02:51:49;;;;;;;6.97;1.45;;;12.20;99.90;;;;;;5025410;28;20126;-17
2023/12/11 02:54:15;;;;;;;5.70;0.90;;;12.20;99.90;;;;;;4988117;28;20036;-16
2023/12/11 02:56:40;;;;;;;5.63;1.30;;;12.20;99.90;;;;;;5015929;28;20029;-18
2023/12/11 02:59:06;;;;;;;8.53;1.40;;;12.20;99.90;;;;;;5017247;28;20033;-16
2023/12/11 03:01:32;;;;;;;5.53;1.08;;;12.10;99.90;;;;;;4995884;28;20090;-18
2023/12/11 03:03:58;;;;;;;8.70;1.30;;;12.10;99.90;;;;;;5027618;28;20142;-17
2023/12/11 03:06:24;;;;;;;9.90;1.50;;;12.20;99.90;;;;;;5000917;28;20086;-17
2023/12/11 03:08:49;;;;;;;10.27;1.60;;;12.10;99.90;;;;;;5001719;28;20963;-16
2023/12/11 03:11:15;;;;;;;6.63;1.33;;;12.10;99.90;;;;;;5018200;28;20036;-16
2023/12/11 03:13:41;;;;;;;7.72;1.55;;;12.10;99.90;;;;;;5018665;28;20083;-17
2023/12/11 03:16:11;;;;;;;10.90;1.77;;;12.10;99.90;;;;;;5023988;28;20029;-17
2023/12/11 03:18:37;;;;;;;6.38;1.58;;;12.10;99.90;;;;;;5026864;28;20025;-18
2023/12/11 03:21:03;;;;;;;7.65;1.42;;;12.10;99.90;;;;;;5008648;28;20247;-16
2023/12/11 03:23:29;;;;;;;9.70;1.75;;;12.10;99.90;;;;;;5024821;28;20099;-18
2023/12/11 03:25:55;;;;;;;7.63;1.30;;;12.10;99.90;;;;;;4995748;28;20064;-16
2023/12/11 03:28:21;;;;;;;8.13;1.88;;;12.10;99.90;;;;;;4986922;28;20506;-16
2023/12/11 03:30:47;;;;;;;6.70;1.50;;;12.10;99.90;;;;;;5013202;28;20021;-16
2023/12/11 03:33:13;;;;;;;5.63;1.13;;;12.10;99.90;;;;;;4995189;28;20042;-15
2023/12/11 03:35:39;;;;;;;7.55;1.90;;;12.10;99.90;;;;;;4982218;28;20064;-17
2023/12/11 03:38:04;;;;;;;10.38;1.80;;;12.10;99.90;;;;;;5028048;28;20143;-16
2023/12/11 03:40:30;;;;;;;8.00;1.67;;;12.10;99.90;;;;;;5007269;28;20109;-16
2023/12/11 03:42:56;;;;;;;7.82;1.58;;;12.10;99.90;;;;;;4986491;28;20584;-16
2023/12/11 03:45:22;;;;;;;4.93;1.17;;;12.10;99.90;;;;;;5016628;28;20695;-16
2023/12/11 03:47:48;;;;;;;11.10;1.42;;;12.10;99.90;;;;;;5023989;28;21997;-15
2023/12/11 03:50:14;;;;;;;6.97;1.33;;;12.00;99.90;;;;;;5000064;28;20033;-16
2023/12/11 03:52:40;;;;;;;6.67;1.30;;;12.10;99.90;;;;;;5026304;28;20031;-17
2023/12/11 03:55:06;;;;;;;5.57;1.30;;;12.00;99.90;;;;;;5016392;28;20044;-16
2023/12/11 03:57:33;;;;;;;3.08;0.90;;;12.00;99.90;;;;;;4982663;28;20041;-17
2023/12/11 03:59:59;;;;;;;5.03;1.20;;;12.00;99.90;;;;;;5006303;28;20678;-17
2023/12/11 04:02:24;;;;;;;7.47;1.23;;;12.00;99.90;;;;;;5017481;28;20164;-16
2023/12/11 04:04:50;;;;;;;9.48;1.83;;;12.00;99.90;;;;;;5027627;28;20021;-16
2023/12/11 04:07:16;;;;;;;6.10;1.43;;;11.90;99.90;;;;;;5012506;28;20036;-16
2023/12/11 04:09:42;;;;;;;7.93;1.48;;;11.90;99.90;;;;;;5021880;28;20025;-17
2023/12/11 04:12:08;;;;;;;5.88;1.38;;;11.90;99.90;;;;;;5009970;28;20060;-16
2023/12/11 04:14:33;;;;;;;8.80;1.50;;;11.90;99.90;;;;;;4999646;28;20087;-17
2023/12/11 04:17:00;;;;;;;5.63;1.20;;;11.90;99.90;;;;;;5018165;28;20289;-16
2023/12/11 04:19:25;;;;;;;4.67;1.23;;;11.90;99.90;;;;;;5030227;28;20589;-16
2023/12/11 04:21:51;;;;;;;10.63;1.73;;;11.90;99.90;;;;;;5010250;28;20079;-16
2023/12/11 04:24:17;;;;;;;8.37;1.73;;;12.00;99.90;;;;;;4999086;28;20475;-16
2023/12/11 04:26:42;;;;;;;9.55;1.70;;;12.00;99.90;;;;;;4988814;28;20056;-18
2023/12/11 04:29:08;;;;;;;10.93;2.00;;;12.00;99.90;;;;;;5015782;28;20094;-17
2023/12/11 04:31:34;;;;;;;6.53;1.35;;;12.00;99.90;;;;;;5023284;28;20052;-17
2023/12/11 04:34:00;;;;;;;11.83;1.60;;;12.00;99.90;;;;;;5018269;28;20429;-16
2023/12/11 04:36:26;;;;;;;6.50;1.15;;;12.10;99.90;;;;;;5013597;28;20037;-16
2023/12/11 04:38:52;;;;;;;7.60;1.40;;;12.10;99.90;;;;;;4993262;28;20033;-19
2023/12/11 04:41:18;;;;;;;6.30;1.40;;;12.10;99.90;;;;;;5029579;28;20037;-20
2023/12/11 04:43:44;;;;;;;8.18;1.60;;;12.00;99.90;;;;;;4980853;28;20132;-19
2023/12/11 04:46:10;;;;;;;6.72;1.25;;;12.10;99.90;;;;;;5030759;28;20039;-19
2023/12/11 04:48:36;;;;;;;5.03;1.13;;;12.10;99.90;;;;;;5020496;28;20486;-19
2023/12/11 04:51:01;;;;;;;6.10;1.30;;;12.10;99.90;;;;;;5029732;28;20191;-20
2023/12/11 04:53:27;;;;;;;9.05;1.58;;;12.10;99.90;;;;;;5017790;28;20033;-19
2023/12/11 04:55:53;;;;;;;7.57;1.60;;;12.10;99.90;;;;;;5025562;28;20410;-19
2023/12/11 04:58:20;;;;;;;6.30;1.20;;;12.10;99.90;;;;;;4988394;28;20108;-20
2023/12/11 05:00:46;;;;;;;9.52;1.48;;;12.10;99.90;;;;;;5006021;28;20052;-19
2023/12/11 05:03:11;;;;;;;7.87;1.50;;;12.20;99.90;;;;;;5003194;28;20029;-20
2023/12/11 05:05:37;;;;;;;7.35;1.08;;;12.20;99.90;;;;;;5013391;28;20031;-19
2023/12/11 05:08:03;;;;;;;9.23;1.60;;;12.20;99.90;;;;;;5014067;28;20247;-20
2023/12/11 05:10:29;;;;;;;7.35;1.27;;;12.10;99.90;;;;;;5016457;28;20028;-19
2023/12/11 05:12:55;;;;;;;8.65;1.58;;;12.20;99.90;;;;;;5011205;28;20324;-20
2023/12/11 05:15:21;;;;;;;6.53;1.60;;;12.20;99.90;;;;;;5007483;28;20655;-19
2023/12/11 05:17:46;;;;;;;7.78;1.40;;;12.20;99.90;;;;;;5025156;28;20132;-19
2023/12/11 05:20:16;;;;;;;9.77;2.03;;;12.20;99.90;;;;;;5003567;28;20095;-20
2023/12/11 05:22:41;;;;;;;9.30;1.73;;;12.20;99.90;;;;;;5030579;28;20036;-19
2023/12/11 05:25:07;;;;;;;8.35;1.40;;;12.30;99.90;;;;;;4998269;28;20021;-20
2023/12/11 05:27:33;;;;;;;9.02;1.40;;;12.30;99.90;;;;;;5029062;28;20030;-19
2023/12/11 05:29:59;;;;;;;5.27;1.37;;;12.30;99.90;;;;;;5004882;28;20243;-20
2023/12/11 05:32:24;;;;;;;7.75;1.40;;;12.30;99.90;;;;;;5012797;28;20068;-20
2023/12/11 05:34:50;;;;;;;8.67;1.30;;;12.40;99.90;;;;;;5015150;28;20240;-20
2023/12/11 05:37:16;;;;;;;6.75;1.00;;;12.40;99.90;;;;;;5013522;28;20029;-19
2023/12/11 05:39:42;;;;;;;5.83;1.30;;;12.40;99.90;;;;;;5015203;28;20025;-19
2023/12/11 05:42:07;;;;;;;8.75;1.25;;;12.50;99.90;;;;;;5027177;28;20040;-20
2023/12/11 05:44:33;;;;;;;7.50;1.20;;;12.50;99.90;;;;;;4997925;28;20025;-19
2023/12/11 05:46:59;;;;;;;8.00;1.10;;;12.50;99.90;;;;;;5013722;28;20115;-20
2023/12/11 05:49:25;;;;;;;5.38;1.00;;;12.50;99.90;;;;;;5022535;28;20067;-16
2023/12/11 05:51:51;;;;;;;6.53;1.30;;;12.50;99.90;;;;;;4983929;28;20018;-16
2023/12/11 05:54:17;;;;;;;9.35;1.60;;;12.50;99.90;;;;;;5029099;28;20029;-16
2023/12/11 05:56:42;;;;;;;8.50;1.52;;;12.60;99.90;;;;;;5014070;28;20033;-18
2023/12/11 05:59:08;;;;;;;4.87;1.50;;;12.50;99.90;;;;;;5013021;28;20033;-20
2023/12/11 06:01:34;;;;;;;6.53;1.20;;;12.50;99.90;;;;;;4995349;28;20025;-19
2023/12/11 06:04:00;;;;;;;6.13;1.27;;;12.60;99.90;;;;;;5006941;28;20021;-19
2023/12/11 06:06:27;;;;;;;8.30;1.05;;;12.60;99.90;;;;;;5012425;28;20670;-20
2023/12/11 06:08:53;;;;;;;8.70;1.83;;;12.60;99.90;;;;;;5016176;28;20047;-20
2023/12/11 06:11:19;;;;;;;11.53;1.67;;;12.60;99.90;;;;;;5012148;28;20021;-19
2023/12/11 06:13:44;;;;;;;9.45;1.50;;;12.60;99.90;;;;;;5013838;28;20029;-19
2023/12/11 06:16:10;;;;;;;6.40;1.35;;;12.70;99.90;;;;;;5000769;28;20517;-20
2023/12/11 06:18:38;;;;;;;9.00;1.40;;;12.70;99.90;;;;;;5009502;28;20044;-20
2023/12/11 06:21:04;;;;;;;7.50;1.17;;;12.70;99.90;;;;;;4990916;28;20514;-20
2023/12/11 06:23:30;;;;;;;12.65;1.63;;;12.70;99.90;;;;;;5003527;28;20404;-20
2023/12/11 06:25:56;;;;;;;10.75;1.52;;;12.70;99.90;;;;;;5003347;28;20700;-20
2023/12/11 06:28:22;;;;;;;10.37;1.87;;;12.70;99.90;;;;;;5013266;28;20541;-20
2023/12/11 06:30:48;;;;;;;7.72;1.00;;;12.70;99.90;;;;;;5004777;28;21980;-20
2023/12/11 06:33:13;;;;;;;7.27;1.20;;;12.70;99.90;;;;;;5028104;28;20028;-20
2023/12/11 06:35:39;;;;;;;9.45;1.75;;;12.70;99.90;;;;;;5014224;28;20038;-20
2023/12/11 06:38:05;;;;;;;12.90;2.07;;;12.80;99.90;;;;;;5016061;28;20115;-21
2023/12/11 06:40:31;;;;;;;9.60;1.48;;;12.80;99.90;;;;;;5011662;28;20041;-21
2023/12/11 06:42:56;;;;;;;10.45;1.52;;;12.80;99.90;;;;;;5001249;28;20028;-20
2023/12/11 06:45:22;;;;;;;6.90;1.13;;;12.80;99.90;;;;;;5007500;28;20033;-20
2023/12/11 06:47:48;;;;;;;6.38;1.20;;;12.80;99.90;;;;;;5019859;28;20585;-21
2023/12/11 06:50:16;;;;;;;10.23;1.30;;;12.80;99.90;;;;;;5015952;28;20025;-20
2023/12/11 06:52:42;;;;;;;8.07;1.25;;;12.80;99.90;;;;;;5016402;28;20966;-21
2023/12/11 06:55:08;;;;;;;8.10;1.40;;;12.80;99.90;;;;;;4994037;28;20043;-21
2023/12/11 06:57:33;;;;;;;10.80;1.60;;;12.80;99.90;;;;;;5005517;28;20769;-20
2023/12/11 07:00:02;;;;;;;10.73;1.70;;;12.80;99.90;;;;;;5028575;28;20240;-18
2023/12/11 07:02:27;;;;;;;8.37;1.50;;;12.80;99.90;;;;;;5005729;28;20037;-19
2023/12/11 07:04:53;;;;;;;9.73;1.50;;;12.80;99.90;;;;;;5022487;28;20570;-18
2023/12/11 07:07:19;;;;;;;7.80;1.50;;;12.80;99.90;;;;;;5014545;28;20040;-18
2023/12/11 07:09:46;;;;;;;11.05;1.95;;;12.80;99.90;;;;;;5020628;28;20025;-19
2023/12/11 07:12:12;;;;;;;8.60;1.60;;;12.80;99.90;;;;;;5015482;28;20106;-19
2023/12/11 07:14:38;;;;;;;4.60;0.90;;;12.90;99.90;;;;;;4984425;28;20021;-19
2023/12/11 07:17:04;;;;;;;8.48;1.33;;;12.90;99.90;;;;;;5000142;28;20461;-19
2023/12/11 07:19:29;;;;;;;8.03;1.30;;;12.90;99.90;;;;;;5019061;28;20648;-19
2023/12/11 07:21:55;;;;;;;7.37;1.40;;;12.80;99.90;;;;;;5020922;28;20362;-18
2023/12/11 07:24:21;;;;;;;10.25;1.98;;;12.80;99.90;;;;;;5021028;28;20037;-19
2023/12/11 07:26:47;;;;;;;12.73;1.40;;;12.80;99.90;;;;;;5002197;28;20053;-19
2023/12/11 07:29:13;;;;;;;6.70;1.23;;;12.90;99.90;;;;;;4999184;28;20033;-19
2023/12/11 07:31:41;;;;;;;9.03;1.73;;;12.90;99.90;;;;;;4985643;28;20029;-19
2023/12/11 07:34:07;;;;;;;5.50;1.20;;;12.90;99.90;;;;;;5012658;28;20042;-19
2023/12/11 07:36:32;;;;;;;7.20;1.40;;;12.80;99.90;;;;;;5007957;28;20139;-19
2023/12/11 07:38:58;;;;;;;5.33;1.20;;;12.80;99.90;;;;;;4998720;28;20773;-20
2023/12/11 07:41:24;;;;;;;9.50;1.85;;;12.90;99.90;;;;;;5009294;28;20539;-19
2023/12/11 07:43:50;;;;;;;3.23;0.90;;;12.80;99.90;;;;;;5015352;28;20554;-19
2023/12/11 07:46:20;;;;;;;7.10;1.10;;;12.80;99.90;;;;;;4990761;28;20063;-18
2023/12/11 07:48:46;;;;;;;9.13;1.35;;;12.90;99.90;;;;;;4992862;28;20039;-19
2023/12/11 07:51:19;;;;;;;9.25;1.30;;;12.80;99.90;;;;;;5008529;28;20144;-19
2023/12/11 07:53:46;;;;;;;8.77;1.30;;;12.80;99.90;;;;;;5004974;28;21395;-20
2023/12/11 07:56:22;;;;;;;7.55;1.63;;;12.90;99.90;;;;;;5001490;28;20604;-20
2023/12/11 07:58:49;;;;;;;7.60;1.30;;;12.80;99.90;;;;;;5013088;28;20028;-20
2023/12/11 08:01:15;;;;;;;6.35;1.27;;;12.80;99.90;;;;;;4995039;28;20492;-20
2023/12/11 08:03:40;;;;;;;5.85;1.23;;;12.80;99.90;;;;;;4963353;28;20038;-19
2023/12/11 08:06:08;;;;;;;6.83;1.53;;;12.80;99.90;;;;;;4983455;28;20037;-20
2023/12/11 08:08:40;;;;;;;6.60;1.10;;;12.80;99.90;;;;;;4994836;28;20287;-20
2023/12/11 08:11:16;;;;;;;8.93;1.75;;;12.80;99.90;;;;;;4990768;28;20095;-20
2023/12/11 08:13:42;;;;;;;7.53;1.30;;;12.80;99.90;;;;;;4993916;28;20495;-19
2023/12/11 08:16:08;;;;;;;7.47;1.33;;;12.80;99.90;;;;;;4998134;28;20494;-20
2023/12/11 08:18:34;;;;;;;7.60;1.08;;;12.90;99.90;;;;;;5004116;28;20227;-19
2023/12/11 08:21:00;;;;;;;3.57;1.00;;;12.80;99.90;;;;;;4985564;28;20037;-20
2023/12/11 08:23:25;;;;;;;8.88;1.30;;;12.80;99.90;;;;;;5002880;28;20033;-19
2023/12/11 08:25:51;;;;;;;5.67;1.17;;;12.90;99.90;;;;;;4971778;28;20084;-20
2023/12/11 08:28:17;;;;;;;5.80;0.95;;;12.90;99.90;;;;;;4992571;28;20101;-19
2023/12/11 08:30:43;;;;;;;7.00;1.20;;;12.90;99.90;;;;;;5007417;28;20022;-20
2023/12/11 08:33:08;;;;;;;4.35;1.00;;;12.90;99.90;;;;;;4985055;28;20036;-20
2023/12/11 08:35:34;;;;;;;8.73;1.40;;;12.90;99.90;;;;;;4979328;28;20033;-19
2023/12/11 08:38:00;;;;;;;7.07;1.30;;;12.90;99.90;;;;;;4998472;28;20042;-21
2023/12/11 08:40:26;;;;;;;4.60;1.13;;;12.90;99.90;;;;;;4984346;28;20030;-19
2023/12/11 08:42:52;;;;;;;3.55;1.00;;;12.90;99.90;;;;;;4986317;28;20091;-19
2023/12/11 08:45:17;;;;;;;3.92;0.90;;;11.70;99.90;;;;;;5008277;28;20083;-20
2023/12/11 08:47:43;;;;;;;6.30;1.03;;;12.90;99.90;;;;;;4975554;28;20057;-19
2023/12/11 08:50:09;;;;;;;5.93;1.00;;;12.90;99.90;;;;;;4984027;28;20123;-20
2023/12/11 08:52:36;;;;;;;3.13;0.80;;;12.90;99.90;;;;;;4993105;28;20108;-19
2023/12/11 08:55:03;;;;;;;4.00;0.87;;;12.90;99.90;;;;;;4985649;28;20029;-20
2023/12/11 08:57:28;;;;;;;4.57;1.48;;;12.90;99.90;;;;;;4977429;28;20131;-19
2023/12/11 08:59:54;;;;;;;7.75;1.30;;;12.90;99.90;;;;;;5009643;28;20025;-19
2023/12/11 09:02:20;;;;;;;5.00;1.10;;;12.90;99.90;;;;;;4991059;28;20396;-20
2023/12/11 09:04:45;;;;;;;4.07;0.90;;;12.90;99.90;;;;;;4990563;28;20548;-19
2023/12/11 09:07:11;;;;;;;7.30;1.20;;;12.90;99.90;;;;;;4987503;28;20473;-20
2023/12/11 09:09:38;;;;;;;4.80;1.20;;;12.90;99.90;;;;;;4982884;28;20065;-20
2023/12/11 09:12:05;;;;;;;3.30;0.80;;;12.90;99.90;;;;;;4997272;28;20038;-20
2023/12/11 09:14:33;;;;;;;4.17;0.87;;;12.90;99.90;;;;;;4998201;28;20053;-19
2023/12/11 09:16:59;;;;;;;5.60;1.20;;;12.90;99.90;;;;;;5011458;28;20099;-20
2023/12/11 09:19:25;;;;;;;4.50;0.93;;;12.90;99.90;;;;;;4938432;28;20230;-20
2023/12/11 09:21:51;;;;;;;3.70;0.80;;;12.90;99.90;;;;;;4991971;28;20030;-20
2023/12/11 09:24:17;;;;;;;4.87;0.97;;;12.90;99.90;;;;;;4994860;28;20095;-19
2023/12/11 09:26:43;;;;;;;5.65;1.08;;;12.90;99.90;;;;;;5020479;28;20053;-19
2023/12/11 09:29:10;;;;;;;4.03;1.00;;;12.90;99.90;;;;;;5022149;28;20041;-22
2023/12/11 09:31:37;;;;;;;4.50;1.20;;;13.00;99.90;;;;;;5033619;28;20029;-22
2023/12/11 09:34:03;;;;;;;3.97;1.35;;;13.00;99.90;;;;;;5018149;28;20529;-22
2023/12/11 09:36:29;;;;;;;4.93;1.00;;;12.90;99.90;;;;;;4988085;28;20033;-23
2023/12/11 09:38:55;;;;;;;3.40;0.83;;;13.00;99.90;;;;;;5032218;28;20935;-22
2023/12/11 09:41:21;;;;;;;3.22;0.90;;;13.00;99.90;;;;;;5018282;28;20025;-22
2023/12/11 09:43:48;;;;;;;7.28;1.05;;;13.00;99.90;;;;;;5023694;28;20041;-22
2023/12/11 09:46:18;;;;;;;5.30;1.02;;;12.90;99.90;;;;;;5033230;28;20127;-22
2023/12/11 09:48:46;;;;;;;4.77;0.90;;;13.00;99.90;;;;;;5022385;28;20119;-22
2023/12/11 09:51:14;;;;;;;3.88;0.82;;;13.00;99.90;;;;;;5013596;28;20022;-22
2023/12/11 09:53:40;;;;;;;5.43;1.10;;;13.00;99.90;;;;;;5011864;28;20026;-22
2023/12/11 09:56:06;;;;;;;4.07;0.77;;;13.00;99.90;;;;;;4995893;28;20445;-22
2023/12/11 09:58:32;;;;;;;2.58;0.95;;;13.00;99.90;;;;;;5004793;28;20330;-22
2023/12/11 10:01:00;;;;;;;4.73;1.57;;;13.00;99.90;;;;;;5018775;28;20037;-22
2023/12/11 10:03:29;;;;;;;5.25;1.20;;;13.00;99.90;;;;;;5027908;28;20116;-22
2023/12/11 10:05:59;;;;;;;5.82;1.00;;;13.00;99.90;;;;;;5012265;28;20504;-22
2023/12/11 10:08:25;;;;;;;4.40;0.97;;;13.00;99.90;;;;;;4995129;28;20037;-22
2023/12/11 10:11:11;;;;;;;5.65;1.00;;;13.00;99.90;;;;;;5027217;28;20033;-22
2023/12/11 10:13:38;;;;;;;2.90;0.95;;;13.00;99.90;;;;;;5022968;28;20407;-22
2023/12/11 10:16:08;;;;;;;3.97;1.00;;;13.00;99.90;;;;;;5016852;28;20026;-22
2023/12/11 10:18:47;;;;;;;5.18;0.90;;;13.00;99.90;;;;;;5025783;28;20131;-22
2023/12/11 10:21:13;;;;;;;5.33;0.90;;;13.00;99.90;;;;;;4970376;28;20457;-22
2023/12/11 10:23:39;;;;;;;5.78;1.08;;;13.00;99.90;;;;;;5004401;28;20033;-22
2023/12/11 10:26:06;;;;;;;5.78;0.90;;;13.00;99.90;;;;;;5027984;28;20483;-22
2023/12/11 10:28:32;;;;;;;2.43;0.70;;;13.00;99.90;;;;;;5026982;28;20083;-22
2023/12/11 10:31:01;;;;;;;2.58;0.80;;;13.00;99.90;;;;;;5012129;28;20616;-22
2023/12/11 10:33:31;;;;;;;7.15;1.55;;;13.00;99.90;;;;;;5012511;28;20182;-22
2023/12/11 10:36:12;;;;;;;6.13;1.00;;;13.00;99.90;;;;;;5012219;28;20703;-22
2023/12/11 10:38:39;;;;;;;3.13;0.90;;;13.00;99.90;;;;;;5020108;28;20197;-20
2023/12/11 10:41:05;;;;;;;5.90;1.10;;;13.00;99.90;;;;;;5007875;28;20371;-20
2023/12/11 10:43:42;;;;;;;4.45;1.00;;;13.00;99.90;;;;;;5026231;28;20799;-19
2023/12/11 10:46:09;;;;;;;3.95;1.27;;;13.00;99.90;;;;;;5015727;28;20127;-21
2023/12/11 10:48:35;;;;;;;4.95;1.00;;;13.10;99.90;;;;;;5020853;28;20021;-20
2023/12/11 10:51:05;;;;;;;5.18;1.50;;;13.10;99.90;;;;;;5028796;28;20021;-20
2023/12/11 10:53:33;;;;;;;5.20;1.10;;;13.10;99.90;;;;;;4998687;28;20024;-19
2023/12/11 10:56:00;;;;;;;8.20;1.45;;;13.10;99.90;;;;;;4990482;28;20033;-20
2023/12/11 10:58:27;;;;;;;6.20;1.30;;;13.10;99.90;;;;;;5013449;28;20454;-20
2023/12/11 11:00:55;;;;;;;4.85;1.05;;;13.10;99.90;;;;;;5004210;28;20029;-20
2023/12/11 11:03:23;;;;;;;4.88;1.02;;;13.10;99.90;;;;;;4998640;28;20706;-19
2023/12/11 11:05:51;;;;;;;5.47;1.30;;;13.10;99.90;;;;;;5027161;28;20021;-19
2023/12/11 11:08:40;;;;;;;3.83;0.80;;;13.20;99.90;;;;;;5001614;28;20059;-20
2023/12/11 11:11:27;;;;;;;3.33;0.95;;;13.10;99.90;;;;;;5014996;28;20056;-21
2023/12/11 11:13:55;;;;;;;5.32;1.10;;;13.20;99.90;;;;;;5024922;28;20084;-20
2023/12/11 11:16:21;;;;;;;3.83;1.00;;;13.20;99.90;;;;;;5022116;28;20037;-21
2023/12/11 11:19:06;;;;;;;3.33;0.80;;;13.20;99.90;;;;;;4977051;28;20498;-20
2023/12/11 11:21:32;;;;;;;7.72;1.20;;;13.20;99.90;;;;;;4987932;28;20655;-19
2023/12/11 11:23:58;;;;;;;7.68;1.48;;;13.20;99.90;;;;;;4995304;28;20043;-20
2023/12/11 11:26:33;;;;;;;5.57;0.97;;;13.30;99.90;;;;;;5018320;28;20266;-20
2023/12/11 11:28:59;;;;;;;4.00;0.90;;;13.30;99.90;;;;;;4993555;28;20386;-21
2023/12/11 11:31:49;;;;;;;3.10;0.80;;;13.40;99.90;;;;;;5017134;28;20146;-20
2023/12/11 11:34:15;;;;;;;4.93;0.90;;;13.50;99.90;;;;;;4980694;28;20041;-21
2023/12/11 11:36:46;;;;;;;7.47;1.77;;;13.50;99.90;;;;;;5023871;28;20052;-20
2023/12/11 11:39:12;;;;;;;4.32;1.15;;;13.60;99.90;;;;;;5000045;28;20029;-22
2023/12/11 11:41:38;;;;;;;4.20;1.00;;;13.70;99.90;;;;;;5023344;28;20475;-22
2023/12/11 11:44:06;;;;;;;6.75;1.02;;;13.70;99.90;;;;;;5000173;28;20140;-22
2023/12/11 11:46:59;;;;;;;4.27;1.03;;;13.80;99.90;;;;;;5016196;28;20258;-23
2023/12/11 11:49:35;;;;;;;2.25;1.10;;;13.80;99.90;;;;;;4994168;28;20033;-20
2023/12/11 11:52:05;;;;;;;4.28;0.80;;;13.80;99.90;;;;;;5000879;28;20108;-19
2023/12/11 11:54:32;;;;;;;4.30;1.05;;;13.80;99.90;;;;;;5013327;28;20040;-20
2023/12/11 11:56:58;;;;;;;2.75;1.13;;;13.80;99.90;;;;;;5014686;28;20398;-21
2023/12/11 11:59:24;;;;;;;4.37;0.80;;;13.70;99.90;;;;;;5002998;28;20238;-20
2023/12/11 12:01:58;;;;;;;4.20;0.90;;;13.80;99.90;;;;;;5021007;28;20515;-20
2023/12/11 12:04:34;;;;;;;3.73;0.80;;;13.80;99.90;;;;;;4995733;28;20148;-20
2023/12/11 12:07:04;;;;;;;2.90;0.85;;;13.80;99.90;;;;;;5015133;28;20021;-21
2023/12/11 12:09:31;;;;;;;2.50;0.70;;;13.80;99.90;;;;;;5007784;28;24215;-20
2023/12/11 12:12:00;;;;;;;3.42;0.70;;;13.80;99.90;;;;;;5002988;28;20029;-20
2023/12/11 12:14:26;;;;;;;2.20;0.70;;;13.70;99.90;;;;;;4983241;28;20253;-19
2023/12/11 12:16:52;;;;;;;3.40;0.90;;;13.70;99.90;;;;;;5006228;28;20060;-20
2023/12/11 12:19:39;;;;;;;2.30;0.70;;;13.70;99.90;;;;;;5005779;28;20286;-20
2023/12/11 12:22:05;;;;;;;2.42;0.70;;;13.70;99.90;;;;;;5016232;28;20029;-21
2023/12/11 12:24:36;;;;;;;5.07;0.90;;;13.70;99.90;;;;;;5002889;28;20644;-20
2023/12/11 12:27:05;;;;;;;3.63;0.93;;;13.60;99.90;;;;;;4991128;28;20677;-20
2023/12/11 12:29:32;;;;;;;6.03;1.48;;;13.60;99.90;;;;;;4991758;28;20218;-20
2023/12/11 12:31:59;;;;;;;4.88;1.00;;;13.70;99.90;;;;;;5015052;28;20761;-19
2023/12/11 12:34:27;;;;;;;5.00;1.08;;;13.70;99.90;;;;;;5019016;28;20044;-20
2023/12/11 12:36:55;;;;;;;3.75;0.82;;;13.80;99.90;;;;;;4997336;28;20463;-20
2023/12/11 12:39:21;;;;;;;3.97;0.80;;;14.00;99.90;;;;;;5022409;28;20724;-20
2023/12/11 12:41:51;;;;;;;2.65;0.88;;;14.10;99.90;;;;;;5010520;28;20093;-21
2023/12/11 12:44:18;;;;;;;4.53;1.10;;;14.20;99.90;;;;;;4989478;28;20045;-19